createdAt,value
2018-04-23T00:00:47.032Z,99.99
2018-04-23T00:01:47.015Z,99.99
2018-04-23T00:02:46.980Z,99.99
2018-04-23T00:03:46.976Z,99.99
2018-04-23T00:04:46.940Z,99.99
2018-04-23T00:05:46.919Z,99.99
2018-04-23T00:06:46.899Z,99.99
2018-04-23T00:07:46.873Z,99.99
2018-04-23T00:08:46.846Z,99.99
2018-04-23T00:09:46.832Z,99.99
2018-04-23T00:10:46.805Z,99.99
2018-04-23T00:11:46.786Z,99.99
2018-04-23T00:12:46.761Z,99.99
2018-04-23T00:13:46.740Z,99.99
2018-04-23T00:14:46.708Z,99.99
2018-04-23T00:15:46.701Z,99.99
2018-04-23T00:16:46.668Z,99.99
2018-04-23T00:17:46.645Z,99.99
2018-04-23T00:18:46.623Z,99.99
2018-04-23T00:19:46.599Z,99.99
2018-04-23T00:20:46.577Z,99.99
2018-04-23T00:21:46.559Z,99.99
2018-04-23T00:22:46.536Z,99.99
2018-04-23T00:23:46.508Z,99.99
2018-04-23T00:24:46.485Z,99.99
2018-04-23T00:25:46.466Z,99.99
2018-04-23T00:26:46.444Z,99.99
2018-04-23T00:27:46.414Z,99.99
2018-04-23T00:28:46.399Z,99.99
2018-04-23T00:29:46.374Z,99.99
2018-04-23T00:30:46.354Z,99.99
2018-04-23T00:31:46.326Z,99.99
2018-04-23T00:32:46.302Z,99.99
2018-04-23T00:33:46.292Z,99.99
2018-04-23T00:34:46.260Z,99.99
2018-04-23T00:35:46.240Z,99.99
2018-04-23T00:36:46.219Z,99.99
2018-04-23T00:37:46.198Z,99.99
2018-04-23T00:38:46.172Z,99.99
2018-04-23T00:39:46.145Z,99.99
2018-04-23T00:40:46.124Z,99.99
2018-04-23T00:41:46.101Z,99.99
2018-04-23T00:42:46.079Z,99.99
2018-04-23T00:43:46.064Z,99.99
2018-04-23T00:44:46.033Z,99.99
2018-04-23T00:45:46.008Z,99.99
2018-04-23T00:46:45.994Z,99.99
2018-04-23T00:47:45.962Z,99.99
2018-04-23T00:48:45.951Z,99.99
2018-04-23T00:49:45.913Z,99.99
2018-04-23T00:50:45.902Z,99.99
2018-04-23T00:51:45.868Z,99.99
2018-04-23T00:52:45.852Z,99.99
2018-04-23T00:53:45.838Z,99.99
2018-04-23T00:54:45.805Z,99.99
2018-04-23T00:55:45.781Z,99.99
2018-04-23T00:56:45.757Z,99.99
2018-04-23T00:57:45.744Z,99.99
2018-04-23T00:58:45.717Z,99.99
2018-04-23T00:59:45.689Z,99.99
2018-04-23T01:00:45.679Z,99.99
2018-04-23T01:01:45.642Z,99.99
2018-04-23T01:02:45.620Z,99.99
2018-04-23T01:03:45.605Z,99.99
2018-04-23T01:04:45.572Z,99.99
2018-04-23T01:05:45.554Z,99.99
2018-04-23T01:06:45.535Z,99.99
2018-04-23T01:07:45.526Z,99.99
2018-04-23T01:08:45.482Z,99.99
2018-04-23T01:09:45.463Z,99.99
2018-04-23T01:10:45.450Z,99.99
2018-04-23T01:11:45.417Z,99.99
2018-04-23T01:12:45.390Z,99.99
2018-04-23T01:13:45.380Z,99.99
2018-04-23T01:14:45.364Z,99.99
2018-04-23T01:15:45.321Z,99.99
2018-04-23T01:16:45.306Z,99.99
2018-04-23T01:17:45.290Z,99.99
2018-04-23T01:18:45.261Z,99.99
2018-04-23T01:19:45.232Z,99.99
2018-04-23T01:20:45.218Z,99.99
2018-04-23T01:21:45.203Z,99.99
2018-04-23T01:22:45.170Z,99.99
2018-04-23T01:23:45.142Z,99.99
2018-04-23T01:24:45.134Z,99.99
2018-04-23T01:25:45.105Z,99.99
2018-04-23T01:26:45.094Z,99.99
2018-04-23T01:27:45.066Z,99.99
2018-04-23T01:28:45.048Z,99.99
2018-04-23T01:29:45.003Z,99.99
2018-04-23T01:30:44.982Z,99.99
2018-04-23T01:31:44.971Z,99.99
2018-04-23T01:32:44.942Z,99.99
2018-04-23T01:33:44.921Z,99.99
2018-04-23T01:34:44.900Z,99.99
2018-04-23T01:35:44.866Z,99.99
2018-04-23T01:36:44.839Z,99.99
2018-04-23T01:37:44.923Z,99.99
2018-04-23T01:38:44.861Z,99.99
2018-04-23T01:39:44.774Z,99.99
2018-04-23T01:40:44.758Z,99.99
2018-04-23T01:41:44.731Z,99.99
2018-04-23T01:42:44.712Z,99.99
2018-04-23T01:43:44.688Z,99.99
2018-04-23T01:44:44.682Z,99.99
2018-04-23T01:45:44.654Z,99.99
2018-04-23T01:46:44.611Z,99.99
2018-04-23T01:47:44.603Z,99.99
2018-04-23T01:48:44.574Z,99.99
2018-04-23T01:49:44.550Z,99.99
2018-04-23T01:50:44.527Z,99.99
2018-04-23T01:51:44.518Z,99.99
2018-04-23T01:52:44.485Z,99.99
2018-04-23T01:53:44.452Z,99.99
2018-04-23T01:54:44.437Z,99.99
2018-04-23T01:55:44.409Z,99.99
2018-04-23T01:56:46.968Z,99.99
2018-04-23T01:57:46.974Z,99.99
2018-04-23T01:58:45.617Z,99.99
2018-04-23T01:59:46.949Z,99.99
2018-04-23T02:00:44.301Z,99.99
2018-04-23T02:01:44.269Z,99.99
2018-04-23T02:02:44.248Z,99.99
2018-04-23T02:03:44.237Z,99.99
2018-04-23T02:04:44.210Z,99.99
2018-04-23T02:05:44.187Z,99.99
2018-04-23T02:06:44.156Z,99.99
2018-04-23T02:07:44.130Z,99.99
2018-04-23T02:08:44.108Z,99.99
2018-04-23T02:09:44.101Z,99.99
2018-04-23T02:10:44.071Z,99.99
2018-04-23T02:11:44.046Z,99.99
2018-04-23T02:12:44.029Z,99.99
2018-04-23T02:13:43.998Z,99.99
2018-04-23T02:14:43.979Z,99.99
2018-04-23T02:15:43.948Z,99.99
2018-04-23T02:16:43.933Z,99.99
2018-04-23T02:17:43.907Z,99.99
2018-04-23T02:18:43.885Z,99.99
2018-04-23T02:19:43.862Z,99.99
2018-04-23T02:20:43.839Z,99.99
2018-04-23T02:21:43.819Z,99.99
2018-04-23T02:22:43.788Z,99.99
2018-04-23T02:23:43.767Z,99.99
2018-04-23T02:24:43.747Z,99.99
2018-04-23T02:25:43.726Z,99.99
2018-04-23T02:26:43.707Z,99.99
2018-04-23T02:27:43.680Z,99.99
2018-04-23T02:28:43.650Z,99.99
2018-04-23T02:29:43.637Z,99.99
2018-04-23T02:30:43.605Z,99.99
2018-04-23T02:31:43.593Z,99.99
2018-04-23T02:32:43.568Z,99.99
2018-04-23T02:33:43.545Z,99.99
2018-04-23T02:34:43.518Z,99.99
2018-04-23T02:35:43.498Z,99.99
2018-04-23T02:36:43.478Z,99.99
2018-04-23T02:37:43.450Z,99.99
2018-04-23T02:38:43.427Z,99.99
2018-04-23T02:39:43.406Z,99.99
2018-04-23T02:40:43.379Z,99.99
2018-04-23T02:41:43.365Z,99.99
2018-04-23T02:42:43.336Z,99.99
2018-04-23T02:43:43.320Z,99.99
2018-04-23T02:44:43.287Z,99.99
2018-04-23T02:45:43.279Z,99.99
2018-04-23T02:46:43.242Z,99.99
2018-04-23T02:47:43.222Z,99.99
2018-04-23T02:48:43.193Z,99.99
2018-04-23T02:49:43.177Z,99.99
2018-04-23T02:50:43.151Z,99.99
2018-04-23T02:51:43.132Z,99.99
2018-04-23T02:52:43.108Z,99.99
2018-04-23T02:53:43.091Z,99.99
2018-04-23T02:54:43.055Z,99.99
2018-04-23T02:55:43.038Z,99.99
2018-04-23T02:56:43.012Z,99.99
2018-04-23T02:57:43.000Z,99.99
2018-04-23T02:58:42.972Z,99.99
2018-04-23T02:59:42.950Z,99.99
2018-04-23T03:00:42.929Z,99.99
2018-04-23T03:01:42.897Z,99.99
2018-04-23T03:02:42.878Z,99.99
2018-04-23T03:03:42.858Z,99.99
2018-04-23T03:04:42.828Z,99.99
2018-04-23T03:05:42.808Z,99.99
2018-04-23T03:06:42.787Z,99.99
2018-04-23T03:07:42.762Z,99.99
2018-04-23T03:08:42.737Z,99.99
2018-04-23T03:09:42.715Z,99.99
2018-04-23T03:10:42.696Z,99.99
2018-04-23T03:11:42.669Z,99.99
2018-04-23T03:12:42.649Z,99.99
2018-04-23T03:13:42.626Z,99.99
2018-04-23T03:14:42.595Z,99.99
2018-04-23T03:15:42.579Z,99.99
2018-04-23T03:16:42.564Z,99.99
2018-04-23T03:17:42.533Z,99.99
2018-04-23T03:18:42.507Z,99.99
2018-04-23T03:19:42.486Z,99.99
2018-04-23T03:20:42.463Z,99.99
2018-04-23T03:21:42.450Z,99.99
2018-04-23T03:22:42.415Z,99.99
2018-04-23T03:23:42.388Z,99.99
2018-04-23T03:24:42.365Z,99.99
2018-04-23T03:25:42.348Z,99.99
2018-04-23T03:26:42.322Z,99.99
2018-04-23T03:27:42.302Z,99.99
2018-04-23T03:28:42.280Z,99.99
2018-04-23T03:29:42.253Z,99.99
2018-04-23T03:30:42.228Z,99.99
2018-04-23T03:31:42.224Z,99.99
2018-04-23T03:32:42.184Z,99.99
2018-04-23T03:33:42.159Z,99.99
2018-04-23T03:34:42.138Z,99.99
2018-04-23T03:35:42.117Z,99.99
2018-04-23T03:36:42.094Z,99.99
2018-04-23T03:37:42.064Z,99.99
2018-04-23T03:38:42.072Z,99.99
2018-04-23T03:39:42.017Z,99.99
2018-04-23T03:40:42.007Z,99.99
2018-04-23T03:41:41.977Z,99.99
2018-04-23T03:42:41.952Z,99.99
2018-04-23T03:43:41.930Z,99.99
2018-04-23T03:44:41.905Z,99.99
2018-04-23T03:45:41.886Z,99.99
2018-04-23T03:46:41.862Z,99.99
2018-04-23T03:47:41.840Z,99.99
2018-04-23T03:48:41.822Z,99.99
2018-04-23T03:49:41.836Z,99.99
2018-04-23T03:50:41.765Z,99.99
2018-04-23T03:51:41.746Z,99.99
2018-04-23T03:52:41.723Z,99.99
2018-04-23T03:53:41.694Z,99.99
2018-04-23T03:54:41.674Z,99.99
2018-04-23T03:55:41.666Z,99.99
2018-04-23T03:56:41.629Z,99.99
2018-04-23T03:57:41.621Z,99.99
2018-04-23T03:58:41.577Z,99.99
2018-04-23T03:59:41.561Z,99.99
2018-04-23T04:00:41.539Z,99.99
2018-04-23T04:01:41.514Z,99.99
2018-04-23T04:02:41.495Z,99.99
2018-04-23T04:03:41.464Z,99.99
2018-04-23T04:04:41.436Z,99.99
2018-04-23T04:05:41.426Z,99.99
2018-04-23T04:06:41.393Z,99.99
2018-04-23T04:07:41.371Z,99.99
2018-04-23T04:08:41.353Z,99.99
2018-04-23T04:09:41.318Z,99.99
2018-04-23T04:10:41.298Z,99.99
2018-04-23T04:11:41.285Z,99.99
2018-04-23T04:12:41.254Z,99.99
2018-04-23T04:13:41.223Z,99.99
2018-04-23T04:14:41.209Z,99.99
2018-04-23T04:15:41.190Z,99.99
2018-04-23T04:16:41.157Z,99.99
2018-04-23T04:17:41.139Z,99.99
2018-04-23T04:18:41.112Z,99.99
2018-04-23T04:19:41.096Z,99.99
2018-04-23T04:20:41.068Z,99.99
2018-04-23T04:21:41.037Z,99.99
2018-04-23T04:22:41.020Z,99.99
2018-04-23T04:23:40.991Z,99.99
2018-04-23T04:24:41.007Z,99.99
2018-04-23T04:25:40.960Z,99.99
2018-04-23T04:26:40.920Z,99.99
2018-04-23T04:27:43.356Z,99.99
2018-04-23T04:28:43.929Z,99.99
2018-04-23T04:29:42.804Z,99.99
2018-04-23T04:30:40.891Z,99.99
2018-04-23T04:31:40.813Z,99.99
2018-04-23T04:32:40.791Z,99.99
2018-04-23T04:33:40.982Z,99.99
2018-04-23T04:34:40.761Z,99.99
2018-04-23T04:35:40.958Z,99.99
2018-04-23T04:36:40.696Z,99.99
2018-04-23T04:37:40.666Z,99.99
2018-04-23T04:38:40.878Z,99.99
2018-04-23T04:39:40.769Z,99.99
2018-04-23T04:40:40.772Z,99.99
2018-04-23T04:41:40.573Z,99.99
2018-04-23T04:42:40.552Z,99.99
2018-04-23T04:43:40.778Z,99.99
2018-04-23T04:44:40.508Z,99.99
2018-04-23T04:45:40.490Z,99.99
2018-04-23T04:46:40.461Z,99.99
2018-04-23T04:47:40.433Z,99.99
2018-04-23T04:48:40.435Z,99.99
2018-04-23T04:49:40.495Z,99.99
2018-04-23T04:50:40.370Z,99.99
2018-04-23T04:51:40.374Z,99.99
2018-04-23T04:52:40.334Z,99.99
2018-04-23T04:53:40.343Z,99.99
2018-04-23T04:54:40.278Z,99.99
2018-04-23T04:55:40.246Z,99.99
2018-04-23T04:56:40.244Z,99.99
2018-04-23T04:57:40.211Z,99.99
2018-04-23T04:58:40.189Z,99.99
2018-04-23T04:59:40.151Z,99.99
2018-04-23T05:00:40.176Z,99.99
2018-04-23T05:01:40.120Z,99.99
2018-04-23T05:02:40.096Z,99.99
2018-04-23T05:03:40.170Z,99.99
2018-04-23T05:04:40.035Z,99.99
2018-04-23T05:05:40.019Z,99.99
2018-04-23T05:06:39.994Z,99.99
2018-04-23T05:07:39.968Z,99.99
2018-04-23T05:08:39.949Z,99.99
2018-04-23T05:09:39.924Z,99.99
2018-04-23T05:10:39.897Z,99.99
2018-04-23T05:11:39.881Z,99.99
2018-04-23T05:12:39.853Z,99.99
2018-04-23T05:13:39.828Z,99.99
2018-04-23T05:14:39.802Z,99.99
2018-04-23T05:15:39.800Z,99.99
2018-04-23T05:16:39.777Z,99.99
2018-04-23T05:17:39.742Z,99.99
2018-04-23T05:18:39.716Z,99.99
2018-04-23T05:19:39.733Z,99.99
2018-04-23T05:20:39.668Z,99.99
2018-04-23T05:21:39.644Z,99.99
2018-04-23T05:22:39.621Z,99.99
2018-04-23T05:23:39.632Z,99.99
2018-04-23T05:24:39.575Z,99.99
2018-04-23T05:25:39.546Z,99.99
2018-04-23T05:26:39.521Z,99.99
2018-04-23T05:27:39.508Z,99.99
2018-04-23T05:28:39.579Z,99.99
2018-04-23T05:29:39.457Z,99.99
2018-04-23T05:30:39.560Z,99.99
2018-04-23T05:31:39.525Z,99.99
2018-04-23T05:32:39.521Z,99.99
2018-04-23T05:33:39.356Z,99.99
2018-04-23T05:34:39.344Z,99.99
2018-04-23T05:35:39.316Z,99.99
2018-04-23T05:36:39.300Z,99.99
2018-04-23T05:37:39.322Z,99.99
2018-04-23T05:38:39.247Z,99.99
2018-04-23T05:39:39.229Z,99.99
2018-04-23T05:40:39.198Z,99.99
2018-04-23T05:41:39.176Z,99.99
2018-04-23T05:42:39.156Z,99.99
2018-04-23T05:43:39.126Z,99.99
2018-04-23T05:44:39.103Z,99.99
2018-04-23T05:45:39.094Z,99.99
2018-04-23T05:46:39.068Z,99.99
2018-04-23T05:47:39.039Z,99.99
2018-04-23T05:48:39.015Z,99.99
2018-04-23T05:49:39.001Z,99.81
2018-04-23T05:50:38.971Z,98.95
2018-04-23T05:51:38.942Z,99.81
2018-04-23T05:52:38.922Z,98.76
2018-04-23T05:53:38.919Z,99.24
2018-04-23T05:54:38.888Z,98.76
2018-04-23T05:55:38.852Z,97.90
2018-04-23T05:56:38.828Z,98.00
2018-04-23T05:57:38.808Z,98.00
2018-04-23T05:58:38.782Z,98.47
2018-04-23T05:59:38.756Z,97.61
2018-04-23T06:00:38.733Z,97.52
2018-04-23T06:01:38.754Z,97.71
2018-04-23T06:02:38.712Z,97.61
2018-04-23T06:03:38.667Z,97.42
2018-04-23T06:04:38.643Z,96.94
2018-04-23T06:05:38.617Z,97.61
2018-04-23T06:06:38.597Z,98.38
2018-04-23T06:07:38.569Z,96.94
2018-04-23T06:08:38.543Z,96.27
2018-04-23T06:09:38.525Z,96.56
2018-04-23T06:10:38.524Z,97.23
2018-04-23T06:11:38.474Z,96.27
2018-04-23T06:12:38.454Z,96.56
2018-04-23T06:13:38.431Z,95.51
2018-04-23T06:14:38.416Z,93.88
2018-04-23T06:15:38.379Z,95.70
2018-04-23T06:16:38.353Z,95.79
2018-04-23T06:17:38.338Z,95.61
2018-04-23T06:18:38.312Z,96.47
2018-04-23T06:19:38.302Z,95.98
2018-04-23T06:20:38.263Z,95.70
2018-04-23T06:21:38.245Z,96.94
2018-04-23T06:22:38.216Z,95.22
2018-04-23T06:23:38.405Z,94.36
2018-04-23T06:24:38.182Z,95.51
2018-04-23T06:25:38.147Z,94.17
2018-04-23T06:26:38.132Z,94.45
2018-04-23T06:27:38.096Z,93.40
2018-04-23T06:28:38.077Z,94.36
2018-04-23T06:29:38.054Z,92.63
2018-04-23T06:30:38.035Z,92.06
2018-04-23T06:31:38.190Z,93.40
2018-04-23T06:32:37.986Z,93.83
2018-04-23T06:33:37.955Z,93.21
2018-04-23T06:34:37.936Z,92.73
2018-04-23T06:35:37.908Z,91.44
2018-04-23T06:36:37.896Z,91.63
2018-04-23T06:37:37.861Z,91.63
2018-04-23T06:38:37.846Z,91.44
2018-04-23T06:39:37.814Z,91.63
2018-04-23T06:40:37.812Z,91.82
2018-04-23T06:41:37.770Z,91.30
2018-04-23T06:42:40.193Z,90.67
2018-04-23T06:43:37.722Z,90.82
2018-04-23T06:44:37.847Z,91.15
2018-04-23T06:45:37.678Z,91.58
2018-04-23T06:46:37.662Z,90.58
2018-04-23T06:47:39.080Z,90.34
2018-04-23T06:48:37.811Z,91.05
2018-04-23T06:49:37.579Z,90.86
2018-04-23T06:50:37.560Z,91.39
2018-04-23T06:51:37.692Z,91.82
2018-04-23T06:52:37.510Z,90.48
2018-04-23T06:53:37.507Z,90.58
2018-04-23T06:54:37.468Z,89.76
2018-04-23T06:55:37.501Z,89.76
2018-04-23T06:56:37.497Z,90.91
2018-04-23T06:57:37.576Z,90.53
2018-04-23T06:58:37.554Z,91.01
2018-04-23T06:59:37.347Z,90.82
2018-04-23T07:00:37.433Z,90.34
2018-04-23T07:01:37.304Z,90.34
2018-04-23T07:02:37.280Z,90.53
2018-04-23T07:03:37.257Z,90.44
2018-04-23T07:04:37.338Z,91.11
2018-04-23T07:05:37.210Z,90.53
2018-04-23T07:06:37.188Z,89.95
2018-04-23T07:07:37.167Z,90.53
2018-04-23T07:08:37.140Z,90.53
2018-04-23T07:09:38.057Z,90.53
2018-04-23T07:10:37.121Z,90.44
2018-04-23T07:11:37.070Z,90.05
2018-04-23T07:12:37.041Z,90.44
2018-04-23T07:13:37.027Z,90.63
2018-04-23T07:14:36.994Z,90.72
2018-04-23T07:15:36.974Z,89.95
2018-04-23T07:16:36.974Z,90.15
2018-04-23T07:17:36.926Z,91.01
2018-04-23T07:18:36.909Z,90.91
2018-04-23T07:19:36.878Z,90.53
2018-04-23T07:20:36.867Z,90.15
2018-04-23T07:21:36.940Z,89.86
2018-04-23T07:22:36.885Z,89.76
2018-04-23T07:23:36.785Z,89.58
2018-04-23T07:24:36.786Z,90.63
2018-04-23T07:25:36.751Z,90.53
2018-04-23T07:26:36.723Z,90.15
2018-04-23T07:27:36.703Z,90.15
2018-04-23T07:28:36.871Z,89.95
2018-04-23T07:29:36.646Z,90.53
2018-04-23T07:30:36.728Z,90.63
2018-04-23T07:31:36.597Z,89.67
2018-04-23T07:32:36.573Z,89.95
2018-04-23T07:33:36.549Z,90.86
2018-04-23T07:34:36.536Z,89.86
2018-04-23T07:35:36.504Z,90.15
2018-04-23T07:36:36.491Z,90.05
2018-04-23T07:37:36.458Z,89.86
2018-04-23T07:38:36.438Z,89.29
2018-04-23T07:39:36.409Z,89.86
2018-04-23T07:40:36.389Z,90.53
2018-04-23T07:41:36.364Z,89.76
2018-04-23T07:42:36.340Z,90.15
2018-04-23T07:43:36.331Z,90.05
2018-04-23T07:44:36.301Z,89.19
2018-04-23T07:45:36.270Z,88.62
2018-04-23T07:46:36.259Z,87.85
2018-04-23T07:47:36.239Z,88.13
2018-04-23T07:48:36.208Z,88.43
2018-04-23T07:49:36.177Z,88.90
2018-04-23T07:50:36.155Z,88.71
2018-04-23T07:51:36.287Z,87.95
2018-04-23T07:52:36.208Z,88.13
2018-04-23T07:53:36.082Z,87.95
2018-04-23T07:54:36.065Z,87.85
2018-04-23T07:55:36.035Z,88.43
2018-04-23T07:56:36.011Z,88.62
2018-04-23T07:57:35.986Z,88.04
2018-04-23T07:58:35.964Z,88.43
2018-04-23T07:59:35.948Z,88.71
2018-04-23T08:00:35.958Z,89.00
2018-04-23T08:01:36.022Z,87.66
2018-04-23T08:02:35.874Z,87.66
2018-04-23T08:03:35.847Z,87.66
2018-04-23T08:04:35.838Z,87.66
2018-04-23T08:05:35.799Z,88.33
2018-04-23T08:06:35.826Z,88.71
2018-04-23T08:07:35.760Z,88.37
2018-04-23T08:08:35.729Z,87.70
2018-04-23T08:09:35.708Z,87.03
2018-04-23T08:10:35.703Z,86.46
2018-04-23T08:11:35.660Z,87.03
2018-04-23T08:12:35.634Z,86.27
2018-04-23T08:13:35.665Z,85.69
2018-04-23T08:14:35.592Z,85.79
2018-04-23T08:15:35.565Z,85.54
2018-04-23T08:16:35.538Z,84.97
2018-04-23T08:17:35.522Z,83.15
2018-04-23T08:18:35.496Z,84.20
2018-04-23T08:19:35.479Z,84.11
2018-04-23T08:20:35.447Z,83.44
2018-04-23T08:21:35.434Z,82.86
2018-04-23T08:22:35.398Z,81.04
2018-04-23T08:23:35.380Z,81.52
2018-04-23T08:24:35.354Z,81.81
2018-04-23T08:25:35.336Z,81.71
2018-04-23T08:26:35.302Z,80.85
2018-04-23T08:27:35.285Z,80.85
2018-04-23T08:28:35.264Z,81.52
2018-04-23T08:29:35.234Z,82.06
2018-04-23T08:30:35.218Z,81.71
2018-04-23T08:31:35.216Z,81.29
2018-04-23T08:32:35.173Z,82.00
2018-04-23T08:33:35.144Z,82.09
2018-04-23T08:34:35.130Z,81.13
2018-04-23T08:35:35.095Z,80.76
2018-04-23T08:36:35.071Z,80.76
2018-04-23T08:37:35.120Z,80.76
2018-04-23T08:38:35.024Z,80.66
2018-04-23T08:39:35.008Z,80.66
2018-04-23T08:40:34.991Z,80.18
2018-04-23T08:41:34.960Z,79.03
2018-04-23T08:42:34.936Z,79.03
2018-04-23T08:43:34.911Z,79.89
2018-04-23T08:44:34.893Z,79.41
2018-04-23T08:45:34.859Z,78.64
2018-04-23T08:46:34.845Z,79.32
2018-04-23T08:47:34.820Z,78.74
2018-04-23T08:48:34.807Z,78.84
2018-04-23T08:49:34.777Z,78.93
2018-04-23T08:50:34.753Z,78.69
2018-04-23T08:51:34.727Z,78.88
2018-04-23T08:52:34.705Z,78.88
2018-04-23T08:53:34.685Z,78.20
2018-04-23T08:54:34.658Z,78.11
2018-04-23T08:55:34.629Z,78.11
2018-04-23T08:56:34.607Z,77.92
2018-04-23T08:57:34.591Z,77.92
2018-04-23T08:58:35.391Z,77.63
2018-04-23T08:59:34.534Z,77.06
2018-04-23T09:00:34.520Z,77.53
2018-04-23T09:01:34.510Z,77.25
2018-04-23T09:02:34.474Z,77.34
2018-04-23T09:03:34.443Z,77.92
2018-04-23T09:04:34.432Z,76.77
2018-04-23T09:05:34.413Z,76.67
2018-04-23T09:06:34.384Z,76.77
2018-04-23T09:07:34.367Z,77.06
2018-04-23T09:08:34.336Z,77.34
2018-04-23T09:09:34.322Z,76.67
2018-04-23T09:10:34.291Z,76.57
2018-04-23T09:11:34.258Z,76.00
2018-04-23T09:12:34.241Z,75.62
2018-04-23T09:13:34.214Z,76.48
2018-04-23T09:14:34.200Z,77.06
2018-04-23T09:15:34.179Z,77.06
2018-04-23T09:16:34.150Z,77.25
2018-04-23T09:17:34.122Z,76.77
2018-04-23T09:18:34.103Z,77.09
2018-04-23T09:19:34.077Z,76.23
2018-04-23T09:20:34.058Z,75.08
2018-04-23T09:21:34.027Z,75.65
2018-04-23T09:22:34.018Z,75.46
2018-04-23T09:23:33.984Z,74.98
2018-04-23T09:24:33.996Z,74.02
2018-04-23T09:25:33.943Z,74.89
2018-04-23T09:26:33.919Z,75.46
2018-04-23T09:27:33.888Z,75.62
2018-04-23T09:28:33.873Z,75.62
2018-04-23T09:29:33.844Z,74.57
2018-04-23T09:30:33.819Z,75.33
2018-04-23T09:31:33.804Z,74.66
2018-04-23T09:32:33.785Z,73.90
2018-04-23T09:33:33.758Z,73.99
2018-04-23T09:34:33.743Z,74.37
2018-04-23T09:35:33.704Z,73.99
2018-04-23T09:36:33.682Z,73.93
2018-04-23T09:37:33.664Z,74.12
2018-04-23T09:38:33.642Z,73.45
2018-04-23T09:39:33.615Z,73.65
2018-04-23T09:40:33.599Z,73.16
2018-04-23T09:41:33.565Z,73.55
2018-04-23T09:42:33.544Z,72.39
2018-04-23T09:43:33.522Z,72.78
2018-04-23T09:44:33.602Z,73.97
2018-04-23T09:45:33.484Z,73.93
2018-04-23T09:46:33.478Z,73.55
2018-04-23T09:47:33.429Z,72.68
2018-04-23T09:48:33.404Z,71.95
2018-04-23T09:49:33.395Z,72.01
2018-04-23T09:50:33.366Z,69.93
2018-04-23T09:51:33.339Z,69.65
2018-04-23T09:52:33.318Z,68.88
2018-04-23T09:53:33.340Z,67.63
2018-04-23T09:54:33.275Z,67.73
2018-04-23T09:55:33.895Z,67.63
2018-04-23T09:56:33.241Z,68.59
2018-04-23T09:57:33.206Z,68.40
2018-04-23T09:58:33.202Z,68.30
2018-04-23T09:59:33.157Z,67.44
2018-04-23T10:00:33.141Z,67.92
2018-04-23T10:01:33.114Z,68.21
2018-04-23T10:02:33.093Z,67.44
2018-04-23T10:03:33.065Z,68.56
2018-04-23T10:04:33.047Z,68.56
2018-04-23T10:05:33.017Z,69.13
2018-04-23T10:06:32.998Z,68.95
2018-04-23T10:07:32.978Z,69.71
2018-04-23T10:08:32.957Z,69.23
2018-04-23T10:09:32.939Z,69.81
2018-04-23T10:10:32.904Z,70.15
2018-04-23T10:11:32.890Z,70.15
2018-04-23T10:12:32.871Z,70.54
2018-04-23T10:13:32.836Z,70.83
2018-04-23T10:14:32.825Z,70.83
2018-04-23T10:15:32.789Z,70.83
2018-04-23T10:16:32.793Z,69.29
2018-04-23T10:17:32.768Z,69.01
2018-04-23T10:18:32.726Z,68.91
2018-04-23T10:19:32.711Z,68.27
2018-04-23T10:20:32.701Z,68.56
2018-04-23T10:21:32.652Z,68.46
2018-04-23T10:22:32.634Z,68.08
2018-04-23T10:23:32.625Z,67.60
2018-04-23T10:24:32.594Z,67.12
2018-04-23T10:25:32.668Z,67.41
2018-04-23T10:26:32.544Z,67.63
2018-04-23T10:27:32.539Z,67.44
2018-04-23T10:28:32.495Z,67.25
2018-04-23T10:29:32.473Z,67.44
2018-04-23T10:30:32.468Z,68.12
2018-04-23T10:31:32.474Z,68.79
2018-04-23T10:32:32.404Z,68.69
2018-04-23T10:33:32.394Z,67.54
2018-04-23T10:34:32.381Z,67.44
2018-04-23T10:35:32.341Z,68.12
2018-04-23T10:36:32.327Z,68.50
2018-04-23T10:37:32.303Z,67.54
2018-04-23T10:38:32.266Z,67.16
2018-04-23T10:39:32.249Z,65.81
2018-04-23T10:40:32.232Z,67.16
2018-04-23T10:41:32.204Z,66.58
2018-04-23T10:42:32.176Z,66.49
2018-04-23T10:43:32.180Z,66.10
2018-04-23T10:44:32.153Z,65.81
2018-04-23T10:45:32.105Z,65.72
2018-04-23T10:46:32.093Z,65.05
2018-04-23T10:47:32.075Z,65.14
2018-04-23T10:48:32.069Z,65.52
2018-04-23T10:49:32.021Z,65.14
2018-04-23T10:50:32.019Z,64.18
2018-04-23T10:51:31.990Z,64.95
2018-04-23T10:52:31.955Z,65.23
2018-04-23T10:53:31.928Z,65.33
2018-04-23T10:54:31.913Z,65.91
2018-04-23T10:55:31.880Z,65.05
2018-04-23T10:56:31.863Z,65.23
2018-04-23T10:57:31.839Z,65.33
2018-04-23T10:58:31.839Z,65.14
2018-04-23T10:59:31.788Z,65.81
2018-04-23T11:00:31.788Z,65.81
2018-04-23T11:01:31.756Z,66.67
2018-04-23T11:02:31.749Z,65.81
2018-04-23T11:03:31.706Z,66.19
2018-04-23T11:04:31.694Z,66.00
2018-04-23T11:05:31.654Z,66.19
2018-04-23T11:06:31.637Z,65.23
2018-04-23T11:07:31.624Z,65.62
2018-04-23T11:08:31.586Z,65.62
2018-04-23T11:09:31.565Z,63.70
2018-04-23T11:10:31.541Z,64.66
2018-04-23T11:11:31.521Z,64.69
2018-04-23T11:12:31.495Z,64.18
2018-04-23T11:13:31.476Z,64.09
2018-04-23T11:14:31.446Z,64.95
2018-04-23T11:15:31.435Z,65.65
2018-04-23T11:16:31.410Z,65.81
2018-04-23T11:17:31.377Z,65.81
2018-04-23T11:18:31.363Z,66.19
2018-04-23T11:19:31.339Z,64.28
2018-04-23T11:20:31.315Z,63.79
2018-04-23T11:21:31.299Z,61.88
2018-04-23T11:22:31.285Z,62.84
2018-04-23T11:23:31.246Z,62.74
2018-04-23T11:24:31.222Z,63.32
2018-04-23T11:25:31.212Z,62.77
2018-04-23T11:26:31.172Z,62.96
2018-04-23T11:27:31.161Z,62.39
2018-04-23T11:28:31.134Z,59.89
2018-04-23T11:29:31.111Z,60.75
2018-04-23T11:30:31.085Z,60.95
2018-04-23T11:31:31.424Z,60.75
2018-04-23T11:32:31.058Z,61.08
2018-04-23T11:33:31.022Z,61.27
2018-04-23T11:34:30.998Z,60.98
2018-04-23T11:35:30.991Z,59.83
2018-04-23T11:36:30.959Z,57.68
2018-04-23T11:37:30.931Z,57.59
2018-04-23T11:38:30.907Z,57.68
2018-04-23T11:39:30.886Z,58.45
2018-04-23T11:40:30.864Z,58.64
2018-04-23T11:41:30.834Z,58.64
2018-04-23T11:42:30.820Z,58.64
2018-04-23T11:43:30.812Z,59.03
2018-04-23T11:44:30.765Z,59.70
2018-04-23T11:45:30.754Z,60.47
2018-04-23T11:46:30.737Z,60.95
2018-04-23T11:47:30.716Z,60.47
2018-04-23T11:48:30.678Z,61.43
2018-04-23T11:49:30.658Z,60.31
2018-04-23T11:50:30.648Z,59.54
2018-04-23T11:51:30.614Z,59.25
2018-04-23T11:52:30.592Z,59.44
2018-04-23T11:53:30.578Z,60.11
2018-04-23T11:54:30.540Z,59.25
2018-04-23T11:55:30.525Z,59.64
2018-04-23T11:56:30.506Z,60.11
2018-04-23T11:57:30.476Z,60.31
2018-04-23T11:58:30.450Z,59.34
2018-04-23T11:59:30.434Z,59.92
2018-04-23T12:00:30.454Z,57.43
2018-04-23T12:01:30.465Z,56.76
2018-04-23T12:02:30.414Z,56.08
2018-04-23T12:03:30.348Z,57.14
2018-04-23T12:04:30.355Z,59.06
2018-04-23T12:05:30.397Z,58.00
2018-04-23T12:06:30.273Z,57.90
2018-04-23T12:07:30.268Z,58.00
2018-04-23T12:08:30.305Z,58.48
2018-04-23T12:09:30.210Z,58.70
2018-04-23T12:10:30.187Z,59.09
2018-04-23T12:11:30.234Z,58.80
2018-04-23T12:12:30.143Z,57.75
2018-04-23T12:13:30.109Z,57.65
2018-04-23T12:14:30.100Z,58.61
2018-04-23T12:15:30.072Z,58.13
2018-04-23T12:16:30.089Z,58.89
2018-04-23T12:17:30.156Z,58.61
2018-04-23T12:18:30.009Z,57.55
2018-04-23T12:19:29.980Z,57.23
2018-04-23T12:20:29.966Z,58.70
2018-04-23T12:21:29.937Z,56.85
2018-04-23T12:22:30.583Z,56.66
2018-04-23T12:23:29.897Z,56.27
2018-04-23T12:24:30.038Z,57.33
2018-04-23T12:25:29.863Z,57.04
2018-04-23T12:26:30.472Z,57.81
2018-04-23T12:27:29.841Z,58.20
2018-04-23T12:28:29.927Z,58.00
2018-04-23T12:29:29.759Z,58.77
2018-04-23T12:30:29.738Z,58.87
2018-04-23T12:31:29.754Z,59.66
2018-04-23T12:32:29.697Z,58.20
2018-04-23T12:33:29.665Z,58.80
2018-04-23T12:34:29.646Z,58.13
2018-04-23T12:35:29.634Z,57.07
2018-04-23T12:36:29.601Z,58.13
2018-04-23T12:37:29.592Z,58.22
2018-04-23T12:38:29.677Z,57.07
2018-04-23T12:39:29.542Z,57.93
2018-04-23T12:40:29.518Z,57.84
2018-04-23T12:41:29.491Z,56.11
2018-04-23T12:42:29.484Z,55.82
2018-04-23T12:43:29.449Z,56.88
2018-04-23T12:44:29.427Z,57.26
2018-04-23T12:45:29.412Z,57.55
2018-04-23T12:46:29.387Z,57.55
2018-04-23T12:47:29.355Z,58.03
2018-04-23T12:48:29.340Z,57.65
2018-04-23T12:49:29.315Z,57.26
2018-04-23T12:50:29.289Z,57.17
2018-04-23T12:51:29.275Z,57.45
2018-04-23T12:52:29.250Z,57.75